Cochise — WDD8952 — position and weather

sailwx.info

Track history (hours):
 
Tides and Currents Weather Stations Pressure Air Temp Water Temp Dewpoint Dewpoint Depression Visibility Wind Speed Wind Dir Waves Ship Positions

Cochise

Owner: Sause Bros, Coos Bay, OR. More information available from US FCC via Universal Licensing System and Coast Guard Vessel Documentation Center.

Last reported at 2015-Jan-27 11:33 UTC. Time now 2015-Jan-27 12:31 UTC.
Position N 37°55' W 122°25'.

Length 32 m; draft 4.5 m.

Type: Towing. MMSI: 367304990.

Date/timePositionNaut miles runAvg speedWind from/ knotsBaromVisibWave heightAir tempDewpointWater temp
2015-Jan-27 11:33N 37°55' W 122°25'0 0.0
2015-Jan-27 10:33N 37°55' W 122°25'0 0.0
2015-Jan-27 09:33N 37°55' W 122°25'0 0.0
2015-Jan-27 08:33N 37°55' W 122°25'0 0.0
2015-Jan-27 07:33N 37°55' W 122°25'0 0.0
2015-Jan-27 06:33N 37°55' W 122°25'0 0.0
2015-Jan-27 05:33N 37°55' W 122°25'0 0.0
2015-Jan-27 04:33N 37°55' W 122°25'0 0.0
2015-Jan-27 03:33N 37°55' W 122°25'0 0.0
2015-Jan-27 02:33N 37°55' W 122°25'0 0.0
2015-Jan-27 01:33N 37°55' W 122°25'0 0.0
2015-Jan-27 00:33N 37°55' W 122°25'0 0.0
2015-Jan-26 23:33N 37°55' W 122°25'0 0.0
2015-Jan-26 22:30N 37°55' W 122°25'0 0.0
2015-Jan-26 21:33N 37°55' W 122°25'0 0.0
2015-Jan-26 20:33N 37°55' W 122°25'0 0.3
2015-Jan-26 19:34N 37°55' W 122°25'3 2.7
2015-Jan-26 18:33N 37°53' W 122°25'7 6.6
2015-Jan-26 17:33N 37°46' W 122°23'0 0.0
2015-Jan-26 16:32N 37°46' W 122°23'0 0.0
2015-Jan-26 15:32N 37°46' W 122°23'0 0.0
2015-Jan-26 14:32N 37°46' W 122°23'0 0.0
2015-Jan-26 13:32N 37°46' W 122°23'0 0.0
2015-Jan-26 12:32N 37°46' W 122°23'0 0.0
2015-Jan-26 11:32N 37°46' W 122°23'0 0.0
2015-Jan-26 10:32N 37°46' W 122°23'0 0.0
2015-Jan-26 09:32N 37°46' W 122°23'0 0.0
2015-Jan-26 08:32N 37°46' W 122°23'0 0.0
2015-Jan-26 07:32N 37°46' W 122°23'0 0.0
2015-Jan-26 06:32N 37°46' W 122°23'0 0.0
2015-Jan-26 05:32N 37°46' W 122°23'0 0.0
2015-Jan-26 04:26N 37°46' W 122°23'0 0.0
2015-Jan-26 03:32N 37°46' W 122°23'0 0.0
2015-Jan-26 02:32N 37°46' W 122°23'0 0.0
2015-Jan-26 01:32N 37°46' W 122°23'0 0.0
2015-Jan-26 00:32N 37°46' W 122°23'0 0.0
2015-Jan-25 23:32N 37°46' W 122°23'0 0.0
2015-Jan-25 22:32N 37°46' W 122°23'0 0.0
2015-Jan-25 21:32N 37°46' W 122°23'0 0.0
2015-Jan-25 20:32N 37°46' W 122°23'0 0.0
2015-Jan-25 19:32N 37°46' W 122°23'0 0.0
2015-Jan-25 18:32N 37°46' W 122°23'0 0.0
2015-Jan-25 17:32N 37°46' W 122°23'0 0.0
2015-Jan-25 16:32N 37°46' W 122°23'0 0.0
2015-Jan-25 15:32N 37°46' W 122°23'0 0.0
2015-Jan-25 14:32N 37°46' W 122°23'0 0.0
2015-Jan-25 13:32N 37°46' W 122°23'0 0.0
2015-Jan-25 12:32N 37°46' W 122°23'0 0.0
2015-Jan-25 11:32N 37°46' W 122°23'0 0.0
2015-Jan-25 10:32N 37°46' W 122°23'0 0.0
2015-Jan-25 09:32N 37°46' W 122°23'0 0.0
2015-Jan-25 08:32N 37°46' W 122°23'0 0.0
2015-Jan-25 07:32N 37°46' W 122°23'0 0.0
2015-Jan-25 06:32N 37°46' W 122°23'0 0.0
2015-Jan-25 05:32N 37°46' W 122°23'0 0.0
2015-Jan-25 04:32N 37°46' W 122°23'0 0.0
2015-Jan-25 03:32N 37°46' W 122°23'0 0.0
2015-Jan-25 02:32N 37°46' W 122°23'0 0.0
2015-Jan-25 01:32N 37°46' W 122°23'0 0.0
2015-Jan-25 00:32N 37°46' W 122°23'0 0.0
2015-Jan-24 23:32N 37°46' W 122°23'0 0.0
2015-Jan-24 22:32N 37°46' W 122°23'0 0.0
2015-Jan-24 21:32N 37°46' W 122°23'7 7.1
2015-Jan-24 20:33N 37°53' W 122°25'3 3.1
2015-Jan-24 19:32N 37°55' W 122°22'0 0.0
2015-Jan-24 18:32N 37°55' W 122°22'0 0.0
2015-Jan-24 17:32N 37°55' W 122°22'0 0.0
2015-Jan-24 16:32N 37°55' W 122°22'0 0.0
2015-Jan-24 15:33N 37°55' W 122°22'6 5.6
2015-Jan-24 14:33N 37°50' W 122°24'3 3.1
2015-Jan-24 13:31N 37°46' W 122°23'0 0.0
2015-Jan-24 12:31N 37°46' W 122°23'0 0.0
2015-Jan-24 11:31N 37°46' W 122°23'0 0.0
2015-Jan-24 10:31N 37°46' W 122°23'0 0.0
2015-Jan-24 09:31N 37°46' W 122°23'0 0.0
2015-Jan-24 08:31N 37°46' W 122°23'0 0.0
2015-Jan-24 07:31N 37°46' W 122°23'0 0.0
2015-Jan-24 06:31N 37°46' W 122°23'0 0.0
2015-Jan-24 05:31N 37°46' W 122°23'0 0.0
2015-Jan-24 04:31N 37°46' W 122°23'0 0.0
2015-Jan-24 03:31N 37°46' W 122°23'0 0.0
2015-Jan-24 02:31N 37°46' W 122°23'0 0.0
2015-Jan-24 01:28N 37°46' W 122°23'0 0.0
2015-Jan-24 00:28N 37°46' W 122°23'0 0.0
2015-Jan-23 23:31N 37°46' W 122°23'0 0.0
2015-Jan-23 22:31N 37°46' W 122°23'0 0.0
2015-Jan-23 21:28N 37°46' W 122°23'0 0.0
2015-Jan-23 20:31N 37°46' W 122°23'0 0.0
2015-Jan-23 19:31N 37°46' W 122°23'0 0.0
2015-Jan-23 18:31N 37°46' W 122°23'0 0.0
2015-Jan-23 17:31N 37°46' W 122°23'0 0.0
2015-Jan-23 16:31N 37°46' W 122°23'0 0.0
2015-Jan-23 15:31N 37°46' W 122°23'0 0.0
2015-Jan-23 14:31N 37°46' W 122°23'0 0.0
2015-Jan-23 13:31N 37°46' W 122°23'0 0.0
2015-Jan-23 12:31N 37°46' W 122°23'0 0.0
2015-Jan-23 11:31N 37°46' W 122°23'0 0.0
2015-Jan-23 10:31N 37°46' W 122°23'0 0.0
2015-Jan-23 09:31N 37°46' W 122°23'0 0.0
2015-Jan-23 08:31N 37°46' W 122°23'0 0.0
2015-Jan-23 07:31N 37°46' W 122°23'0 0.0
2015-Jan-23 06:31N 37°46' W 122°23'0 0.0
2015-Jan-23 05:31N 37°46' W 122°23'0 0.0
2015-Jan-23 04:31N 37°46' W 122°23'0 0.0
2015-Jan-23 03:28N 37°46' W 122°23'0 0.0
2015-Jan-23 02:31N 37°46' W 122°23'0 0.0
2015-Jan-23 01:31N 37°46' W 122°23'0 0.0
2015-Jan-23 00:31N 37°46' W 122°23'0 0.0
2015-Jan-22 23:31N 37°46' W 122°23'0 0.0
2015-Jan-22 22:31N 37°46' W 122°23'0 0.0
2015-Jan-22 21:31N 37°46' W 122°23'0 0.0
2015-Jan-22 20:31N 37°46' W 122°23'0 0.0
2015-Jan-22 19:31N 37°46' W 122°23'0 0.0
2015-Jan-22 18:31N 37°46' W 122°23'0 0.0
2015-Jan-22 17:31N 37°46' W 122°23'0 0.0
2015-Jan-22 16:31N 37°46' W 122°23'0 0.0
2015-Jan-22 15:31N 37°46' W 122°23'0 0.0
2015-Jan-22 14:31N 37°46' W 122°23'0 0.0
2015-Jan-22 13:31N 37°46' W 122°23'0 0.0
2015-Jan-22 12:31N 37°46' W 122°23'0 0.0
2015-Jan-22 11:28N 37°46' W 122°23'0 0.0
2015-Jan-22 10:31N 37°46' W 122°23'0 0.0
2015-Jan-22 09:31N 37°46' W 122°23'0 0.0
2015-Jan-22 08:31N 37°46' W 122°23'0 0.0
2015-Jan-22 07:31N 37°46' W 122°23'0 0.0
2015-Jan-22 06:31N 37°46' W 122°23'0 0.0
2015-Jan-22 05:31N 37°46' W 122°23'0 0.0
2015-Jan-22 04:31N 37°46' W 122°23'0 0.0
2015-Jan-22 03:31N 37°46' W 122°23'0 0.0
2015-Jan-22 02:31N 37°46' W 122°23'0 0.3
2015-Jan-22 01:33N 37°46' W 122°23'10 9.7
2015-Jan-22 00:33N 37°56' W 122°27'1311.5
2015-Jan-21 23:28N 38°04' W 122°15'7 1.4
2015-Jan-21 18:32N 38°03' W 122°06'0 0.0
2015-Jan-21 17:26N 38°03' W 122°06'0 0.0
2015-Jan-21 14:26N 38°03' W 122°06'0 0.0
2015-Jan-21 05:33N 38°03' W 122°06'4 3.3
2015-Jan-21 04:17N 38°03' W 122°11'5 6.3
2015-Jan-21 03:33N 38°03' W 122°17'6 6.5
2015-Jan-21 02:33N 38°00' W 122°24'5 4.9
2015-Jan-21 01:33N 37°55' W 122°25'0 0.0
2015-Jan-21 00:32N 37°55' W 122°25'0 0.1
2015-Jan-20 23:32N 37°55' W 122°25'0 0.0
2015-Jan-20 22:32N 37°55' W 122°25'0 0.0
2015-Jan-20 21:32N 37°55' W 122°25'0 0.0
2015-Jan-20 20:32N 37°55' W 122°25'0 0.0
2015-Jan-20 19:32N 37°55' W 122°25'0 0.0
2015-Jan-20 18:32N 37°55' W 122°25'0 0.0
2015-Jan-20 17:32N 37°55' W 122°25'0 0.0
2015-Jan-20 16:32N 37°55' W 122°25'0 0.0
2015-Jan-20 15:32N 37°55' W 122°25'0 0.0
2015-Jan-20 14:32N 37°55' W 122°25'0 0.0
2015-Jan-20 13:32N 37°55' W 122°25'0 0.0
2015-Jan-20 12:32N 37°55' W 122°25'0 0.0
2015-Jan-20 11:32N 37°55' W 122°25'0 0.0
2015-Jan-20 10:32N 37°55' W 122°25'0 0.0
2015-Jan-20 09:32N 37°55' W 122°25'0 0.0
2015-Jan-20 08:32N 37°55' W 122°25'0 0.0
2015-Jan-20 07:32N 37°55' W 122°25'0 0.0
2015-Jan-20 06:32N 37°55' W 122°25'0 0.0
2015-Jan-20 05:32N 37°55' W 122°25'0 0.0
2015-Jan-20 04:26N 37°55' W 122°25'1 1.0
2015-Jan-20 03:33N 37°55' W 122°26'4 4.4
2015-Jan-20 02:33N 37°51' W 122°26'9 9.0
2015-Jan-20 01:33N 37°46' W 122°36'1010.0
2015-Jan-20 00:33N 37°47' W 122°49'1010.4
2015-Jan-19 23:33N 37°52' W 123°00'10 9.9
2015-Jan-19 22:33N 37°58' W 123°11'10 9.8
2015-Jan-19 21:33N 38°05' W 123°19'10 9.8
2015-Jan-19 20:33N 38°13' W 123°26'10 9.6
2015-Jan-19 19:33N 38°21' W 123°33'1010.1
2015-Jan-19 18:33N 38°30' W 123°39'1210.0
2015-Jan-19 17:23N 38°40' W 123°47'11 9.6
2015-Jan-19 16:15N 38°49' W 123°54'  
Track history (hours):
 
Tides and Currents Weather Stations Pressure Air Temp Water Temp Dewpoint Dewpoint Depression Visibility Wind Speed Wind Dir Waves Ship Positions

Cochise

Owner: Sause Bros, Coos Bay, OR. More information available from US FCC via Universal Licensing System and Coast Guard Vessel Documentation Center.

Last reported at 2015-Jan-27 11:33 UTC. Time now 2015-Jan-27 12:31 UTC.
Position N 37°55' W 122°25'.

Length 32 m; draft 4.5 m.

Type: Towing. MMSI: 367304990.

Date/timePositionNaut miles runAvg speedWind from/ knotsBaromVisibWave heightAir tempDewpointWater temp
2015-Jan-27 11:33N 37°55' W 122°25'0 0.0
2015-Jan-27 10:33N 37°55' W 122°25'0 0.0
2015-Jan-27 09:33N 37°55' W 122°25'0 0.0
2015-Jan-27 08:33N 37°55' W 122°25'0 0.0
2015-Jan-27 07:33N 37°55' W 122°25'0 0.0
2015-Jan-27 06:33N 37°55' W 122°25'0 0.0
2015-Jan-27 05:33N 37°55' W 122°25'0 0.0
2015-Jan-27 04:33N 37°55' W 122°25'0 0.0
2015-Jan-27 03:33N 37°55' W 122°25'0 0.0
2015-Jan-27 02:33N 37°55' W 122°25'0 0.0
2015-Jan-27 01:33N 37°55' W 122°25'0 0.0
2015-Jan-27 00:33N 37°55' W 122°25'0 0.0
2015-Jan-26 23:33N 37°55' W 122°25'0 0.0
2015-Jan-26 22:30N 37°55' W 122°25'0 0.0
2015-Jan-26 21:33N 37°55' W 122°25'0 0.0
2015-Jan-26 20:33N 37°55' W 122°25'0 0.3
2015-Jan-26 19:34N 37°55' W 122°25'3 2.7
2015-Jan-26 18:33N 37°53' W 122°25'7 6.6
2015-Jan-26 17:33N 37°46' W 122°23'0 0.0
2015-Jan-26 16:32N 37°46' W 122°23'0 0.0
2015-Jan-26 15:32N 37°46' W 122°23'0 0.0
2015-Jan-26 14:32N 37°46' W 122°23'0 0.0
2015-Jan-26 13:32N 37°46' W 122°23'0 0.0
2015-Jan-26 12:32N 37°46' W 122°23'0 0.0
2015-Jan-26 11:32N 37°46' W 122°23'0 0.0
2015-Jan-26 10:32N 37°46' W 122°23'0 0.0
2015-Jan-26 09:32N 37°46' W 122°23'0 0.0
2015-Jan-26 08:32N 37°46' W 122°23'0 0.0
2015-Jan-26 07:32N 37°46' W 122°23'0 0.0
2015-Jan-26 06:32N 37°46' W 122°23'0 0.0
2015-Jan-26 05:32N 37°46' W 122°23'0 0.0
2015-Jan-26 04:26N 37°46' W 122°23'0 0.0
2015-Jan-26 03:32N 37°46' W 122°23'0 0.0
2015-Jan-26 02:32N 37°46' W 122°23'0 0.0
2015-Jan-26 01:32N 37°46' W 122°23'0 0.0
2015-Jan-26 00:32N 37°46' W 122°23'0 0.0
2015-Jan-25 23:32N 37°46' W 122°23'0 0.0
2015-Jan-25 22:32N 37°46' W 122°23'0 0.0
2015-Jan-25 21:32N 37°46' W 122°23'0 0.0
2015-Jan-25 20:32N 37°46' W 122°23'0 0.0
2015-Jan-25 19:32N 37°46' W 122°23'0 0.0
2015-Jan-25 18:32N 37°46' W 122°23'0 0.0
2015-Jan-25 17:32N 37°46' W 122°23'0 0.0
2015-Jan-25 16:32N 37°46' W 122°23'0 0.0
2015-Jan-25 15:32N 37°46' W 122°23'0 0.0
2015-Jan-25 14:32N 37°46' W 122°23'0 0.0
2015-Jan-25 13:32N 37°46' W 122°23'0 0.0
2015-Jan-25 12:32N 37°46' W 122°23'0 0.0
2015-Jan-25 11:32N 37°46' W 122°23'0 0.0
2015-Jan-25 10:32N 37°46' W 122°23'0 0.0
2015-Jan-25 09:32N 37°46' W 122°23'0 0.0
2015-Jan-25 08:32N 37°46' W 122°23'0 0.0
2015-Jan-25 07:32N 37°46' W 122°23'0 0.0
2015-Jan-25 06:32N 37°46' W 122°23'0 0.0
2015-Jan-25 05:32N 37°46' W 122°23'0 0.0
2015-Jan-25 04:32N 37°46' W 122°23'0 0.0
2015-Jan-25 03:32N 37°46' W 122°23'0 0.0
2015-Jan-25 02:32N 37°46' W 122°23'0 0.0
2015-Jan-25 01:32N 37°46' W 122°23'0 0.0
2015-Jan-25 00:32N 37°46' W 122°23'0 0.0
2015-Jan-24 23:32N 37°46' W 122°23'0 0.0
2015-Jan-24 22:32N 37°46' W 122°23'0 0.0
2015-Jan-24 21:32N 37°46' W 122°23'7 7.1
2015-Jan-24 20:33N 37°53' W 122°25'3 3.1
2015-Jan-24 19:32N 37°55' W 122°22'0 0.0
2015-Jan-24 18:32N 37°55' W 122°22'0 0.0
2015-Jan-24 17:32N 37°55' W 122°22'0 0.0
2015-Jan-24 16:32N 37°55' W 122°22'0 0.0
2015-Jan-24 15:33N 37°55' W 122°22'6 5.6
2015-Jan-24 14:33N 37°50' W 122°24'3 3.1
2015-Jan-24 13:31N 37°46' W 122°23'0 0.0
2015-Jan-24 12:31N 37°46' W 122°23'0 0.0
2015-Jan-24 11:31N 37°46' W 122°23'0 0.0
2015-Jan-24 10:31N 37°46' W 122°23'0 0.0
2015-Jan-24 09:31N 37°46' W 122°23'0 0.0
2015-Jan-24 08:31N 37°46' W 122°23'0 0.0
2015-Jan-24 07:31N 37°46' W 122°23'0 0.0
2015-Jan-24 06:31N 37°46' W 122°23'0 0.0
2015-Jan-24 05:31N 37°46' W 122°23'0 0.0
2015-Jan-24 04:31N 37°46' W 122°23'0 0.0
2015-Jan-24 03:31N 37°46' W 122°23'0 0.0
2015-Jan-24 02:31N 37°46' W 122°23'0 0.0
2015-Jan-24 01:28N 37°46' W 122°23'0 0.0
2015-Jan-24 00:28N 37°46' W 122°23'0 0.0
2015-Jan-23 23:31N 37°46' W 122°23'0 0.0
2015-Jan-23 22:31N 37°46' W 122°23'0 0.0
2015-Jan-23 21:28N 37°46' W 122°23'0 0.0
2015-Jan-23 20:31N 37°46' W 122°23'0 0.0
2015-Jan-23 19:31N 37°46' W 122°23'0 0.0
2015-Jan-23 18:31N 37°46' W 122°23'0 0.0
2015-Jan-23 17:31N 37°46' W 122°23'0 0.0
2015-Jan-23 16:31N 37°46' W 122°23'0 0.0
2015-Jan-23 15:31N 37°46' W 122°23'0 0.0
2015-Jan-23 14:31N 37°46' W 122°23'0 0.0
2015-Jan-23 13:31N 37°46' W 122°23'0 0.0
2015-Jan-23 12:31N 37°46' W 122°23'0 0.0
2015-Jan-23 11:31N 37°46' W 122°23'0 0.0
2015-Jan-23 10:31N 37°46' W 122°23'0 0.0
2015-Jan-23 09:31N 37°46' W 122°23'0 0.0
2015-Jan-23 08:31N 37°46' W 122°23'0 0.0
2015-Jan-23 07:31N 37°46' W 122°23'0 0.0
2015-Jan-23 06:31N 37°46' W 122°23'0 0.0
2015-Jan-23 05:31N 37°46' W 122°23'0 0.0
2015-Jan-23 04:31N 37°46' W 122°23'0 0.0
2015-Jan-23 03:28N 37°46' W 122°23'0 0.0
2015-Jan-23 02:31N 37°46' W 122°23'0 0.0
2015-Jan-23 01:31N 37°46' W 122°23'0 0.0
2015-Jan-23 00:31N 37°46' W 122°23'0 0.0
2015-Jan-22 23:31N 37°46' W 122°23'0 0.0
2015-Jan-22 22:31N 37°46' W 122°23'0 0.0
2015-Jan-22 21:31N 37°46' W 122°23'0 0.0
2015-Jan-22 20:31N 37°46' W 122°23'0 0.0
2015-Jan-22 19:31N 37°46' W 122°23'0 0.0
2015-Jan-22 18:31N 37°46' W 122°23'0 0.0
2015-Jan-22 17:31N 37°46' W 122°23'0 0.0
2015-Jan-22 16:31N 37°46' W 122°23'0 0.0
2015-Jan-22 15:31N 37°46' W 122°23'0 0.0
2015-Jan-22 14:31N 37°46' W 122°23'0 0.0
2015-Jan-22 13:31N 37°46' W 122°23'0 0.0
2015-Jan-22 12:31N 37°46' W 122°23'0 0.0
2015-Jan-22 11:28N 37°46' W 122°23'0 0.0
2015-Jan-22 10:31N 37°46' W 122°23'0 0.0
2015-Jan-22 09:31N 37°46' W 122°23'0 0.0
2015-Jan-22 08:31N 37°46' W 122°23'0 0.0
2015-Jan-22 07:31N 37°46' W 122°23'0 0.0
2015-Jan-22 06:31N 37°46' W 122°23'0 0.0
2015-Jan-22 05:31N 37°46' W 122°23'0 0.0
2015-Jan-22 04:31N 37°46' W 122°23'0 0.0
2015-Jan-22 03:31N 37°46' W 122°23'0 0.0
2015-Jan-22 02:31N 37°46' W 122°23'0 0.3
2015-Jan-22 01:33N 37°46' W 122°23'10 9.7
2015-Jan-22 00:33N 37°56' W 122°27'1311.5
2015-Jan-21 23:28N 38°04' W 122°15'7 1.4
2015-Jan-21 18:32N 38°03' W 122°06'0 0.0
2015-Jan-21 17:26N 38°03' W 122°06'0 0.0
2015-Jan-21 14:26N 38°03' W 122°06'0 0.0
2015-Jan-21 05:33N 38°03' W 122°06'4 3.3
2015-Jan-21 04:17N 38°03' W 122°11'5 6.3
2015-Jan-21 03:33N 38°03' W 122°17'6 6.5
2015-Jan-21 02:33N 38°00' W 122°24'5 4.9
2015-Jan-21 01:33N 37°55' W 122°25'0 0.0
2015-Jan-21 00:32N 37°55' W 122°25'0 0.1
2015-Jan-20 23:32N 37°55' W 122°25'0 0.0
2015-Jan-20 22:32N 37°55' W 122°25'0 0.0
2015-Jan-20 21:32N 37°55' W 122°25'0 0.0
2015-Jan-20 20:32N 37°55' W 122°25'0 0.0
2015-Jan-20 19:32N 37°55' W 122°25'0 0.0
2015-Jan-20 18:32N 37°55' W 122°25'0 0.0
2015-Jan-20 17:32N 37°55' W 122°25'0 0.0
2015-Jan-20 16:32N 37°55' W 122°25'0 0.0
2015-Jan-20 15:32N 37°55' W 122°25'0 0.0
2015-Jan-20 14:32N 37°55' W 122°25'0 0.0
2015-Jan-20 13:32N 37°55' W 122°25'0 0.0
2015-Jan-20 12:32N 37°55' W 122°25'0 0.0
2015-Jan-20 11:32N 37°55' W 122°25'0 0.0
2015-Jan-20 10:32N 37°55' W 122°25'0 0.0
2015-Jan-20 09:32N 37°55' W 122°25'0 0.0
2015-Jan-20 08:32N 37°55' W 122°25'0 0.0
2015-Jan-20 07:32N 37°55' W 122°25'0 0.0
2015-Jan-20 06:32N 37°55' W 122°25'0 0.0
2015-Jan-20 05:32N 37°55' W 122°25'0 0.0
2015-Jan-20 04:26N 37°55' W 122°25'1 1.0
2015-Jan-20 03:33N 37°55' W 122°26'4 4.4
2015-Jan-20 02:33N 37°51' W 122°26'9 9.0
2015-Jan-20 01:33N 37°46' W 122°36'1010.0
2015-Jan-20 00:33N 37°47' W 122°49'1010.4
2015-Jan-19 23:33N 37°52' W 123°00'10 9.9
2015-Jan-19 22:33N 37°58' W 123°11'10 9.8
2015-Jan-19 21:33N 38°05' W 123°19'10 9.8
2015-Jan-19 20:33N 38°13' W 123°26'10 9.6
2015-Jan-19 19:33N 38°21' W 123°33'1010.1
2015-Jan-19 18:33N 38°30' W 123°39'1210.0
2015-Jan-19 17:23N 38°40' W 123°47'11 9.6
2015-Jan-19 16:15N 38°49' W 123°54'  

Dump ship's entire track history